This is the latest recevied weather packets stored in our database for station/object IU4KCH-20. If no packets are shown the sender has not sent any weather packets the latest 10 day(s).
| Time | Temp. | Humidity | Pressure | Rain* | Wind** | Luminosity | Snow |
|---|---|---|---|---|---|---|---|
| 1777645622 | 36.67° C | 12% | 1022.7 hPa | - | - | - | - |
| 1777644721 | 38.33° C | 12% | 1022.9 hPa | - | - | - | - |
| 1777643821 | 38.89° C | 13% | 1023.1 hPa | - | - | - | - |
| 1777642920 | 36.11° C | 14% | 1023.3 hPa | - | - | - | - |
| 1777642020 | 37.22° C | 14% | 1023.4 hPa | - | - | - | - |
| 1777641118 | 36.67° C | 14% | 1023.5 hPa | - | - | - | - |
| 1777640217 | 36.11° C | 15% | 1023.8 hPa | - | - | - | - |
| 1777639316 | 33.89° C | 16% | 1024 hPa | - | - | - | - |
| 1777638416 | 32.22° C | 17% | 1024.2 hPa | - | - | - | - |
| 1777637515 | 32.22° C | 18% | 1024.3 hPa | - | - | - | - |
| 1777636614 | 25° C | 27% | 1024.5 hPa | - | - | - | - |
| 1777635713 | 23.89° C | 27% | 1024.5 hPa | - | - | - | - |
| 1777634812 | 22.78° C | 29% | 1024.7 hPa | - | - | - | - |
| 1777633911 | 22.22° C | 30% | 1024.7 hPa | - | - | - | - |
| 1777633011 | 21.67° C | 31% | 1024.9 hPa | - | - | - | - |
| 1777632110 | 20.56° C | 30% | 1025.2 hPa | - | - | - | - |
| 1777631209 | 20.56° C | 33% | 1025.3 hPa | - | - | - | - |
| 1777630308 | 20° C | 33% | 1025.4 hPa | - | - | - | - |
| 1777629407 | 19.44° C | 38% | 1025.4 hPa | - | - | - | - |
| 1777628506 | 18.89° C | 37% | 1025.5 hPa | - | - | - | - |
| 1777627606 | 18.33° C | 42% | 1025.6 hPa | - | - | - | - |
| 1777626705 | 17.78° C | 43% | 1025.6 hPa | - | - | - | - |
| 1777625804 | 17.22° C | 44% | 1025.7 hPa | - | - | - | - |
| 1777624903 | 16.67° C | 46% | 1025.7 hPa | - | - | - | - |
| 1777624002 | 16.67° C | 46% | 1025.7 hPa | - | - | - | - |
* Rain since midnight (hover to see other rain measurements)
** Current wind speed in m/s (hover to see current wind gust speed)